General Aviation Weather

Text Reports

Enter one or more of the following location identifiers separated by a space:

Zip Code, Four-Character ICAO or Three-Character IATA airport codes.

METAR - Aviation Routine Weather Report
KLWM - Lawrence, Massachusetts
Updated at 1:54 AM GMT on March 02, 2015 (8:54 PM EST):
METAR KLWM 020154Z AUTO 20004KT 1 3/4SM -SN BR OVC017 M03/M04 A3023 RMK AO2 SLP241 P0003 T10331044
TAF - Terminal Area Forecast
KLWM - Lawrence, Massachusetts
Updated at 1:54 AM GMT on March 02, 2015 (8:54 PM EST):
No TAF is currently available for this location.
Decoded:
No decoded TAF is available.
PIREP - Pilot Weather Report
KLWM - Lawrence, Massachusetts
Updated at 1:54 AM GMT on March 02, 2015 (8:54 PM EST):
No PIREP is currently available for this location.
AIRMET - Airmens Meteorological Information
KLWM - Lawrence, Massachusetts
Updated at 1:54 AM GMT on March 02, 2015 (8:54 PM EST):
No AIRMET is currently available for this location.
SIGMET - Significant Meteorological Information
KLWM - Lawrence, Massachusetts
Updated at 1:54 AM GMT on March 02, 2015 (8:54 PM EST):
No SIGMET is currently available for this location.
NOTAM - Notice to Airmen
KLWM - Lawrence, Massachusetts
Updated at 1:54 AM GMT on March 02, 2015 (8:54 PM EST):
No NOTAM is currently available for this location.
Forecast Area
KLWM - Lawrence, Massachusetts
Updated at 1:54 AM GMT on March 02, 2015 (8:54 PM EST):
No NOTAM is currently available for this location.
Aviation Weather Maps